Ktima, Cyprus
Current Conditions -  °F | °C
As of 8:30 AM on Wednesday 22 Oct 2014 (Local Time) from LCPH Reporting Station
Broken Clouds Broken Clouds  
Wind Chill: 66°   Ceiling: 4000
Heat Index: 66°   Visibility: 6mi
Dew Point: 55°   Wind: 10mph
Humidity: 68%   Direction: 30°NNE
Pressure: 30.03"   Gusts: NA
Location:  34.76°N, 32.42°E
Report Text: LCPH 220530Z 03009KT 9999 BKN040 19/13 Q1017
Loading
Personal Weather Stations






























Interactive Weather Map
Tropical Storm Tracking
New forecast layout! Learn more

10-Day Weather Forecast

Advertisements
Track Severe Weather on mobile